sensor_id;sensor_type;location;lat;lon;timestamp;P1;durP1;ratioP1;P2;durP2;ratioP2
58208;SDS011;44006;52.028;4.696;2022-10-13T00:01:09;22.40;;;10.75;;
58208;SDS011;44006;52.028;4.696;2022-10-13T00:03:35;22.15;;;10.82;;
58208;SDS011;44006;52.028;4.696;2022-10-13T00:06:03;20.17;;;10.68;;
58208;SDS011;44006;52.028;4.696;2022-10-13T00:08:29;21.52;;;10.23;;
58208;SDS011;44006;52.028;4.696;2022-10-13T00:10:54;20.23;;;11.02;;
58208;SDS011;44006;52.028;4.696;2022-10-13T00:13:19;21.67;;;11.38;;
58208;SDS011;44006;52.028;4.696;2022-10-13T00:15:45;22.98;;;11.95;;
58208;SDS011;44006;52.028;4.696;2022-10-13T00:18:11;21.40;;;11.40;;
58208;SDS011;44006;52.028;4.696;2022-10-13T00:20:39;23.23;;;10.75;;
58208;SDS011;44006;52.028;4.696;2022-10-13T00:23:04;21.17;;;10.23;;
58208;SDS011;44006;52.028;4.696;2022-10-13T00:25:30;20.33;;;11.40;;
58208;SDS011;44006;52.028;4.696;2022-10-13T00:27:55;18.95;;;11.30;;
58208;SDS011;44006;52.028;4.696;2022-10-13T00:30:21;22.90;;;11.30;;
58208;SDS011;44006;52.028;4.696;2022-10-13T00:32:46;18.20;;;10.32;;
58208;SDS011;44006;52.028;4.696;2022-10-13T00:35:11;19.85;;;10.20;;
58208;SDS011;44006;52.028;4.696;2022-10-13T00:37:36;21.55;;;11.27;;
58208;SDS011;44006;52.028;4.696;2022-10-13T00:40:02;18.88;;;11.23;;
58208;SDS011;44006;52.028;4.696;2022-10-13T00:42:28;26.23;;;11.63;;
58208;SDS011;44006;52.028;4.696;2022-10-13T00:47:19;18.63;;;10.53;;
58208;SDS011;44006;52.028;4.696;2022-10-13T00:49:44;22.98;;;11.57;;
58208;SDS011;44006;52.028;4.696;2022-10-13T00:52:10;23.30;;;11.50;;
58208;SDS011;44006;52.028;4.696;2022-10-13T00:54:35;22.70;;;11.27;;
58208;SDS011;44006;52.028;4.696;2022-10-13T00:57:01;21.25;;;11.95;;
58208;SDS011;44006;52.028;4.696;2022-10-13T00:59:27;20.75;;;11.75;;
58208;SDS011;44006;52.028;4.696;2022-10-13T01:01:53;20.20;;;12.18;;
58208;SDS011;44006;52.028;4.696;2022-10-13T01:04:19;18.05;;;10.93;;
58208;SDS011;44006;52.028;4.696;2022-10-13T01:06:46;20.98;;;11.07;;
58208;SDS011;44006;52.028;4.696;2022-10-13T01:09:12;17.95;;;11.77;;
58208;SDS011;44006;52.028;4.696;2022-10-13T01:22:01;18.98;;;12.48;;
58208;SDS011;44006;52.028;4.696;2022-10-13T01:32:18;20.98;;;12.52;;
58208;SDS011;44006;52.028;4.696;2022-10-13T01:37:36;20.38;;;11.93;;
58208;SDS011;44006;52.028;4.696;2022-10-13T01:42:29;22.73;;;12.33;;
58208;SDS011;44006;52.028;4.696;2022-10-13T01:44:58;22.02;;;12.95;;
58208;SDS011;44006;52.028;4.696;2022-10-13T01:47:24;21.00;;;12.10;;
58208;SDS011;44006;52.028;4.696;2022-10-13T01:49:49;21.98;;;12.57;;
58208;SDS011;44006;52.028;4.696;2022-10-13T01:52:17;22.08;;;12.48;;
58208;SDS011;44006;52.028;4.696;2022-10-13T01:54:50;24.25;;;14.45;;
58208;SDS011;44006;52.028;4.696;2022-10-13T01:57:33;22.95;;;12.57;;
58208;SDS011;44006;52.028;4.696;2022-10-13T01:59:59;22.67;;;13.50;;
58208;SDS011;44006;52.028;4.696;2022-10-13T02:12:30;25.33;;;15.88;;
58208;SDS011;44006;52.028;4.696;2022-10-13T02:14:57;25.70;;;15.38;;
58208;SDS011;44006;52.028;4.696;2022-10-13T02:17:24;26.60;;;16.10;;
58208;SDS011;44006;52.028;4.696;2022-10-13T02:19:51;28.17;;;17.08;;
58208;SDS011;44006;52.028;4.696;2022-10-13T02:22:16;23.15;;;14.25;;
58208;SDS011;44006;52.028;4.696;2022-10-13T02:24:42;27.75;;;16.25;;
58208;SDS011;44006;52.028;4.696;2022-10-13T02:27:07;27.75;;;15.63;;
58208;SDS011;44006;52.028;4.696;2022-10-13T02:29:33;26.52;;;15.07;;
58208;SDS011;44006;52.028;4.696;2022-10-13T02:31:58;22.58;;;14.13;;
58208;SDS011;44006;52.028;4.696;2022-10-13T02:34:23;30.42;;;15.40;;
58208;SDS011;44006;52.028;4.696;2022-10-13T02:36:48;27.20;;;15.13;;
58208;SDS011;44006;52.028;4.696;2022-10-13T02:39:14;28.38;;;15.82;;
58208;SDS011;44006;52.028;4.696;2022-10-13T02:41:40;24.17;;;15.55;;
58208;SDS011;44006;52.028;4.696;2022-10-13T02:44:05;26.35;;;15.48;;
58208;SDS011;44006;52.028;4.696;2022-10-13T02:46:30;26.77;;;15.18;;
58208;SDS011;44006;52.028;4.696;2022-10-13T02:48:56;25.80;;;14.43;;
58208;SDS011;44006;52.028;4.696;2022-10-13T02:51:21;27.65;;;16.25;;
58208;SDS011;44006;52.028;4.696;2022-10-13T02:53:46;29.73;;;14.80;;
58208;SDS011;44006;52.028;4.696;2022-10-13T02:56:11;22.85;;;15.80;;
58208;SDS011;44006;52.028;4.696;2022-10-13T02:58:37;21.80;;;15.35;;
58208;SDS011;44006;52.028;4.696;2022-10-13T03:01:09;32.80;;;15.88;;
58208;SDS011;44006;52.028;4.696;2022-10-13T03:03:35;25.10;;;15.35;;
58208;SDS011;44006;52.028;4.696;2022-10-13T03:06:00;29.08;;;15.60;;
58208;SDS011;44006;52.028;4.696;2022-10-13T03:08:26;26.80;;;14.98;;
58208;SDS011;44006;52.028;4.696;2022-10-13T03:10:51;27.73;;;17.50;;
58208;SDS011;44006;52.028;4.696;2022-10-13T03:13:18;27.40;;;15.07;;
58208;SDS011;44006;52.028;4.696;2022-10-13T03:15:43;23.67;;;14.95;;
58208;SDS011;44006;52.028;4.696;2022-10-13T03:18:08;30.20;;;16.35;;
58208;SDS011;44006;52.028;4.696;2022-10-13T03:20:33;27.23;;;16.20;;
58208;SDS011;44006;52.028;4.696;2022-10-13T03:22:59;27.73;;;15.80;;
58208;SDS011;44006;52.028;4.696;2022-10-13T03:25:24;27.38;;;17.13;;
58208;SDS011;44006;52.028;4.696;2022-10-13T03:27:49;27.93;;;16.73;;
58208;SDS011;44006;52.028;4.696;2022-10-13T03:30:16;28.35;;;15.45;;
58208;SDS011;44006;52.028;4.696;2022-10-13T03:32:41;27.38;;;15.52;;
58208;SDS011;44006;52.028;4.696;2022-10-13T03:35:06;29.60;;;17.67;;
58208;SDS011;44006;52.028;4.696;2022-10-13T03:37:32;27.60;;;15.48;;
58208;SDS011;44006;52.028;4.696;2022-10-13T03:39:57;31.88;;;16.88;;
58208;SDS011;44006;52.028;4.696;2022-10-13T03:42:22;28.53;;;15.77;;
58208;SDS011;44006;52.028;4.696;2022-10-13T03:44:48;26.35;;;16.23;;
58208;SDS011;44006;52.028;4.696;2022-10-13T03:47:13;29.08;;;16.42;;
58208;SDS011;44006;52.028;4.696;2022-10-13T03:49:38;31.27;;;17.05;;
58208;SDS011;44006;52.028;4.696;2022-10-13T03:52:04;30.30;;;16.67;;
58208;SDS011;44006;52.028;4.696;2022-10-13T03:54:29;28.92;;;16.27;;
58208;SDS011;44006;52.028;4.696;2022-10-13T03:56:56;26.40;;;16.60;;
58208;SDS011;44006;52.028;4.696;2022-10-13T03:59:21;28.05;;;15.95;;
58208;SDS011;44006;52.028;4.696;2022-10-13T04:01:46;29.60;;;16.73;;
58208;SDS011;44006;52.028;4.696;2022-10-13T04:04:11;28.55;;;16.45;;
58208;SDS011;44006;52.028;4.696;2022-10-13T04:06:37;32.72;;;16.90;;
58208;SDS011;44006;52.028;4.696;2022-10-13T04:09:02;27.92;;;15.52;;
58208;SDS011;44006;52.028;4.696;2022-10-13T04:11:27;29.83;;;17.85;;
58208;SDS011;44006;52.028;4.696;2022-10-13T04:13:54;30.73;;;17.17;;
58208;SDS011;44006;52.028;4.696;2022-10-13T04:16:20;28.92;;;16.42;;
58208;SDS011;44006;52.028;4.696;2022-10-13T04:18:51;29.73;;;15.88;;
58208;SDS011;44006;52.028;4.696;2022-10-13T04:21:16;27.15;;;15.77;;
58208;SDS011;44006;52.028;4.696;2022-10-13T04:23:42;27.92;;;16.42;;
58208;SDS011;44006;52.028;4.696;2022-10-13T04:26:13;33.33;;;15.98;;
58208;SDS011;44006;52.028;4.696;2022-10-13T04:28:38;32.80;;;18.02;;
58208;SDS011;44006;52.028;4.696;2022-10-13T04:31:03;27.25;;;16.92;;
58208;SDS011;44006;52.028;4.696;2022-10-13T04:33:29;28.13;;;16.27;;
58208;SDS011;44006;52.028;4.696;2022-10-13T04:35:54;31.05;;;17.42;;
58208;SDS011;44006;52.028;4.696;2022-10-13T04:38:19;37.03;;;18.30;;
58208;SDS011;44006;52.028;4.696;2022-10-13T04:40:45;31.08;;;16.23;;
58208;SDS011;44006;52.028;4.696;2022-10-13T04:43:10;26.17;;;16.15;;
58208;SDS011;44006;52.028;4.696;2022-10-13T04:45:35;26.30;;;16.02;;
58208;SDS011;44006;52.028;4.696;2022-10-13T04:48:00;33.53;;;16.55;;
58208;SDS011;44006;52.028;4.696;2022-10-13T04:50:27;34.15;;;17.80;;
58208;SDS011;44006;52.028;4.696;2022-10-13T04:52:52;30.70;;;16.35;;
58208;SDS011;44006;52.028;4.696;2022-10-13T04:55:17;30.55;;;16.90;;
58208;SDS011;44006;52.028;4.696;2022-10-13T04:57:42;28.77;;;16.93;;
58208;SDS011;44006;52.028;4.696;2022-10-13T05:00:08;37.15;;;17.02;;
58208;SDS011;44006;52.028;4.696;2022-10-13T05:02:34;28.20;;;15.85;;
58208;SDS011;44006;52.028;4.696;2022-10-13T05:04:59;36.03;;;17.10;;
58208;SDS011;44006;52.028;4.696;2022-10-13T05:07:24;29.13;;;16.00;;
58208;SDS011;44006;52.028;4.696;2022-10-13T05:09:50;31.08;;;15.73;;
58208;SDS011;44006;52.028;4.696;2022-10-13T05:12:15;29.65;;;16.73;;
58208;SDS011;44006;52.028;4.696;2022-10-13T05:14:41;33.42;;;18.00;;
58208;SDS011;44006;52.028;4.696;2022-10-13T05:17:06;26.17;;;16.60;;
58208;SDS011;44006;52.028;4.696;2022-10-13T05:19:31;29.67;;;17.30;;
58208;SDS011;44006;52.028;4.696;2022-10-13T05:21:56;29.77;;;17.05;;
58208;SDS011;44006;52.028;4.696;2022-10-13T05:24:22;29.60;;;17.50;;
58208;SDS011;44006;52.028;4.696;2022-10-13T05:26:55;29.23;;;17.38;;
58208;SDS011;44006;52.028;4.696;2022-10-13T05:29:20;31.63;;;17.27;;
58208;SDS011;44006;52.028;4.696;2022-10-13T05:31:45;30.50;;;17.10;;
58208;SDS011;44006;52.028;4.696;2022-10-13T05:34:11;34.90;;;17.40;;
58208;SDS011;44006;52.028;4.696;2022-10-13T05:36:36;29.25;;;16.65;;
58208;SDS011;44006;52.028;4.696;2022-10-13T05:39:02;28.63;;;16.77;;
58208;SDS011;44006;52.028;4.696;2022-10-13T05:41:28;33.35;;;16.40;;
58208;SDS011;44006;52.028;4.696;2022-10-13T05:43:55;31.42;;;17.15;;
58208;SDS011;44006;52.028;4.696;2022-10-13T05:46:22;29.05;;;17.23;;
58208;SDS011;44006;52.028;4.696;2022-10-13T05:48:47;29.52;;;16.77;;
58208;SDS011;44006;52.028;4.696;2022-10-13T05:51:13;30.70;;;16.42;;
58208;SDS011;44006;52.028;4.696;2022-10-13T05:53:41;40.85;;;15.55;;
58208;SDS011;44006;52.028;4.696;2022-10-13T05:56:10;23.15;;;14.13;;
58208;SDS011;44006;52.028;4.696;2022-10-13T05:58:38;30.40;;;16.30;;
58208;SDS011;44006;52.028;4.696;2022-10-13T06:01:05;30.23;;;15.15;;
58208;SDS011;44006;52.028;4.696;2022-10-13T06:03:32;26.90;;;14.77;;
58208;SDS011;44006;52.028;4.696;2022-10-13T06:05:57;28.42;;;15.60;;
58208;SDS011;44006;52.028;4.696;2022-10-13T06:08:22;29.98;;;17.85;;
58208;SDS011;44006;52.028;4.696;2022-10-13T06:10:47;31.38;;;17.85;;
58208;SDS011;44006;52.028;4.696;2022-10-13T06:13:13;33.15;;;18.60;;
58208;SDS011;44006;52.028;4.696;2022-10-13T06:15:38;33.78;;;17.75;;
58208;SDS011;44006;52.028;4.696;2022-10-13T06:18:07;32.15;;;17.48;;
58208;SDS011;44006;52.028;4.696;2022-10-13T06:20:32;33.53;;;18.70;;
58208;SDS011;44006;52.028;4.696;2022-10-13T06:22:58;41.40;;;20.40;;
58208;SDS011;44006;52.028;4.696;2022-10-13T06:25:23;33.70;;;20.47;;
58208;SDS011;44006;52.028;4.696;2022-10-13T06:27:48;35.97;;;20.23;;
58208;SDS011;44006;52.028;4.696;2022-10-13T06:30:13;40.83;;;19.77;;
58208;SDS011;44006;52.028;4.696;2022-10-13T06:32:39;37.65;;;21.33;;
58208;SDS011;44006;52.028;4.696;2022-10-13T06:35:04;45.83;;;21.98;;
58208;SDS011;44006;52.028;4.696;2022-10-13T06:37:30;41.10;;;22.05;;
58208;SDS011;44006;52.028;4.696;2022-10-13T06:39:55;30.77;;;21.20;;
58208;SDS011;44006;52.028;4.696;2022-10-13T06:42:20;46.03;;;22.97;;
58208;SDS011;44006;52.028;4.696;2022-10-13T06:44:45;46.25;;;23.80;;
58208;SDS011;44006;52.028;4.696;2022-10-13T06:47:11;40.90;;;24.52;;
58208;SDS011;44006;52.028;4.696;2022-10-13T06:49:36;42.33;;;24.53;;
58208;SDS011;44006;52.028;4.696;2022-10-13T06:52:02;48.58;;;24.95;;
58208;SDS011;44006;52.028;4.696;2022-10-13T06:54:27;41.55;;;24.85;;
58208;SDS011;44006;52.028;4.696;2022-10-13T06:56:52;39.08;;;23.90;;
58208;SDS011;44006;52.028;4.696;2022-10-13T06:59:18;41.85;;;23.42;;
58208;SDS011;44006;52.028;4.696;2022-10-13T07:01:43;44.30;;;26.17;;
58208;SDS011;44006;52.028;4.696;2022-10-13T07:04:08;38.55;;;24.83;;
58208;SDS011;44006;52.028;4.696;2022-10-13T07:06:34;42.05;;;24.52;;
58208;SDS011;44006;52.028;4.696;2022-10-13T07:09:02;36.47;;;24.50;;
58208;SDS011;44006;52.028;4.696;2022-10-13T07:11:27;39.40;;;25.67;;
58208;SDS011;44006;52.028;4.696;2022-10-13T07:13:52;45.67;;;25.80;;
58208;SDS011;44006;52.028;4.696;2022-10-13T07:16:17;36.90;;;22.75;;
58208;SDS011;44006;52.028;4.696;2022-10-13T07:18:43;44.58;;;26.45;;
58208;SDS011;44006;52.028;4.696;2022-10-13T07:21:10;38.45;;;23.88;;
58208;SDS011;44006;52.028;4.696;2022-10-13T07:23:35;36.20;;;23.90;;
58208;SDS011;44006;52.028;4.696;2022-10-13T07:26:00;37.40;;;24.50;;
58208;SDS011;44006;52.028;4.696;2022-10-13T07:28:26;38.08;;;24.13;;
58208;SDS011;44006;52.028;4.696;2022-10-13T07:30:51;45.08;;;27.02;;
58208;SDS011;44006;52.028;4.696;2022-10-13T07:33:19;45.10;;;25.20;;
58208;SDS011;44006;52.028;4.696;2022-10-13T07:35:44;39.20;;;23.67;;
58208;SDS011;44006;52.028;4.696;2022-10-13T07:38:09;39.53;;;25.50;;
58208;SDS011;44006;52.028;4.696;2022-10-13T07:40:35;35.70;;;22.73;;
58208;SDS011;44006;52.028;4.696;2022-10-13T07:43:01;36.90;;;22.65;;
58208;SDS011;44006;52.028;4.696;2022-10-13T07:45:27;37.45;;;21.25;;
58208;SDS011;44006;52.028;4.696;2022-10-13T07:47:52;40.30;;;22.52;;
58208;SDS011;44006;52.028;4.696;2022-10-13T07:50:17;34.63;;;23.00;;
58208;SDS011;44006;52.028;4.696;2022-10-13T07:52:42;37.95;;;23.63;;
58208;SDS011;44006;52.028;4.696;2022-10-13T07:55:09;45.10;;;24.77;;
58208;SDS011;44006;52.028;4.696;2022-10-13T07:57:34;38.72;;;24.23;;
58208;SDS011;44006;52.028;4.696;2022-10-13T08:00:00;41.38;;;25.13;;
58208;SDS011;44006;52.028;4.696;2022-10-13T08:02:25;42.38;;;23.55;;
58208;SDS011;44006;52.028;4.696;2022-10-13T08:04:51;36.72;;;24.65;;
58208;SDS011;44006;52.028;4.696;2022-10-13T08:07:16;41.28;;;23.67;;
58208;SDS011;44006;52.028;4.696;2022-10-13T08:09:41;37.15;;;22.35;;
58208;SDS011;44006;52.028;4.696;2022-10-13T08:12:07;34.10;;;21.42;;
58208;SDS011;44006;52.028;4.696;2022-10-13T08:14:32;32.47;;;19.98;;
58208;SDS011;44006;52.028;4.696;2022-10-13T08:16:57;37.42;;;22.30;;
58208;SDS011;44006;52.028;4.696;2022-10-13T08:19:23;39.67;;;22.73;;
58208;SDS011;44006;52.028;4.696;2022-10-13T08:21:50;37.65;;;22.48;;
58208;SDS011;44006;52.028;4.696;2022-10-13T08:24:16;36.90;;;22.75;;
58208;SDS011;44006;52.028;4.696;2022-10-13T08:26:42;39.17;;;22.25;;
58208;SDS011;44006;52.028;4.696;2022-10-13T08:29:08;34.65;;;22.05;;
58208;SDS011;44006;52.028;4.696;2022-10-13T08:31:34;37.17;;;21.30;;
58208;SDS011;44006;52.028;4.696;2022-10-13T08:33:59;38.30;;;22.38;;
58208;SDS011;44006;52.028;4.696;2022-10-13T08:36:24;37.55;;;21.27;;
58208;SDS011;44006;52.028;4.696;2022-10-13T08:38:50;32.88;;;20.83;;
58208;SDS011;44006;52.028;4.696;2022-10-13T08:41:18;40.53;;;23.52;;
58208;SDS011;44006;52.028;4.696;2022-10-13T08:43:46;35.38;;;19.10;;
58208;SDS011;44006;52.028;4.696;2022-10-13T08:46:13;30.50;;;19.00;;
58208;SDS011;44006;52.028;4.696;2022-10-13T08:48:40;28.90;;;19.00;;
58208;SDS011;44006;52.028;4.696;2022-10-13T08:51:10;34.80;;;19.85;;
58208;SDS011;44006;52.028;4.696;2022-10-13T08:53:37;34.63;;;19.67;;
58208;SDS011;44006;52.028;4.696;2022-10-13T08:58:29;32.35;;;19.95;;
58208;SDS011;44006;52.028;4.696;2022-10-13T09:01:03;30.63;;;18.75;;
58208;SDS011;44006;52.028;4.696;2022-10-13T09:03:35;34.28;;;20.48;;
58208;SDS011;44006;52.028;4.696;2022-10-13T09:08:28;37.07;;;20.80;;
58208;SDS011;44006;52.028;4.696;2022-10-13T09:10:56;36.45;;;22.05;;
58208;SDS011;44006;52.028;4.696;2022-10-13T09:13:21;32.97;;;20.63;;
58208;SDS011;44006;52.028;4.696;2022-10-13T09:15:47;33.85;;;21.02;;
58208;SDS011;44006;52.028;4.696;2022-10-13T09:18:14;38.63;;;21.77;;
58208;SDS011;44006;52.028;4.696;2022-10-13T09:20:40;36.80;;;21.65;;
58208;SDS011;44006;52.028;4.696;2022-10-13T09:23:14;37.65;;;22.60;;
58208;SDS011;44006;52.028;4.696;2022-10-13T09:25:41;36.53;;;21.05;;
58208;SDS011;44006;52.028;4.696;2022-10-13T09:28:14;43.55;;;26.05;;
58208;SDS011;44006;52.028;4.696;2022-10-13T09:30:41;36.75;;;23.42;;
58208;SDS011;44006;52.028;4.696;2022-10-13T09:35:37;38.83;;;25.33;;
58208;SDS011;44006;52.028;4.696;2022-10-13T09:38:04;32.38;;;23.83;;
58208;SDS011;44006;52.028;4.696;2022-10-13T09:40:29;37.13;;;24.83;;
58208;SDS011;44006;52.028;4.696;2022-10-13T09:42:56;38.97;;;24.50;;
58208;SDS011;44006;52.028;4.696;2022-10-13T09:45:23;35.47;;;21.92;;
58208;SDS011;44006;52.028;4.696;2022-10-13T09:47:52;36.67;;;21.10;;
58208;SDS011;44006;52.028;4.696;2022-10-13T09:50:22;39.88;;;22.27;;
58208;SDS011;44006;52.028;4.696;2022-10-13T09:52:49;36.30;;;23.23;;
58208;SDS011;44006;52.028;4.696;2022-10-13T09:55:34;30.33;;;19.58;;
58208;SDS011;44006;52.028;4.696;2022-10-13T09:58:02;29.40;;;19.58;;
58208;SDS011;44006;52.028;4.696;2022-10-13T10:00:29;28.17;;;17.80;;
58208;SDS011;44006;52.028;4.696;2022-10-13T10:07:48;26.70;;;17.60;;
58208;SDS011;44006;52.028;4.696;2022-10-13T10:10:35;29.25;;;16.20;;
58208;SDS011;44006;52.028;4.696;2022-10-13T10:12:59;33.70;;;18.27;;
58208;SDS011;44006;52.028;4.696;2022-10-13T10:15:28;33.13;;;19.42;;
58208;SDS011;44006;52.028;4.696;2022-10-13T10:17:57;28.15;;;17.08;;
58208;SDS011;44006;52.028;4.696;2022-10-13T10:25:50;25.23;;;17.60;;
58208;SDS011;44006;52.028;4.696;2022-10-13T10:36:31;29.63;;;17.48;;
58208;SDS011;44006;52.028;4.696;2022-10-13T10:44:28;32.63;;;19.55;;
58208;SDS011;44006;52.028;4.696;2022-10-13T10:46:56;28.75;;;17.30;;
58208;SDS011;44006;52.028;4.696;2022-10-13T10:49:31;29.75;;;17.17;;
58208;SDS011;44006;52.028;4.696;2022-10-13T10:52:00;30.73;;;16.55;;
58208;SDS011;44006;52.028;4.696;2022-10-13T10:54:39;25.15;;;17.20;;
58208;SDS011;44006;52.028;4.696;2022-10-13T11:06:57;23.85;;;15.55;;
58208;SDS011;44006;52.028;4.696;2022-10-13T11:14:44;26.17;;;14.90;;
58208;SDS011;44006;52.028;4.696;2022-10-13T11:17:14;25.30;;;15.18;;
58208;SDS011;44006;52.028;4.696;2022-10-13T11:19:40;26.10;;;15.45;;
58208;SDS011;44006;52.028;4.696;2022-10-13T11:32:10;26.65;;;15.45;;
58208;SDS011;44006;52.028;4.696;2022-10-13T11:34:58;27.25;;;14.35;;
58208;SDS011;44006;52.028;4.696;2022-10-13T11:37:25;23.45;;;13.65;;
58208;SDS011;44006;52.028;4.696;2022-10-13T11:39:58;26.73;;;13.52;;
58208;SDS011;44006;52.028;4.696;2022-10-13T11:45:31;20.95;;;13.60;;
58208;SDS011;44006;52.028;4.696;2022-10-13T11:48:01;33.20;;;17.13;;
58208;SDS011;44006;52.028;4.696;2022-10-13T11:50:41;28.92;;;16.08;;
58208;SDS011;44006;52.028;4.696;2022-10-13T11:53:20;32.65;;;16.38;;
58208;SDS011;44006;52.028;4.696;2022-10-13T11:55:54;31.35;;;18.90;;
58208;SDS011;44006;52.028;4.696;2022-10-13T11:58:21;31.15;;;16.77;;
58208;SDS011;44006;52.028;4.696;2022-10-13T12:03:31;39.22;;;19.25;;
58208;SDS011;44006;52.028;4.696;2022-10-13T12:05:58;34.10;;;17.48;;
58208;SDS011;44006;52.028;4.696;2022-10-13T12:08:24;36.03;;;18.95;;
58208;SDS011;44006;52.028;4.696;2022-10-13T12:10:51;35.55;;;20.08;;
58208;SDS011;44006;52.028;4.696;2022-10-13T12:13:21;35.85;;;19.20;;
58208;SDS011;44006;52.028;4.696;2022-10-13T12:15:47;36.63;;;18.67;;
58208;SDS011;44006;52.028;4.696;2022-10-13T12:18:23;36.17;;;18.00;;
58208;SDS011;44006;52.028;4.696;2022-10-13T12:20:58;32.70;;;18.90;;
58208;SDS011;44006;52.028;4.696;2022-10-13T12:23:27;34.30;;;18.40;;
58208;SDS011;44006;52.028;4.696;2022-10-13T12:25:52;37.53;;;19.98;;
58208;SDS011;44006;52.028;4.696;2022-10-13T12:28:22;32.55;;;21.27;;
58208;SDS011;44006;52.028;4.696;2022-10-13T12:30:50;34.33;;;21.00;;
58208;SDS011;44006;52.028;4.696;2022-10-13T12:33:32;37.58;;;24.05;;
58208;SDS011;44006;52.028;4.696;2022-10-13T12:38:37;39.22;;;24.80;;
58208;SDS011;44006;52.028;4.696;2022-10-13T12:41:03;43.30;;;25.67;;
58208;SDS011;44006;52.028;4.696;2022-10-13T12:43:28;39.72;;;24.33;;
58208;SDS011;44006;52.028;4.696;2022-10-13T12:45:53;37.55;;;26.63;;
58208;SDS011;44006;52.028;4.696;2022-10-13T12:48:28;40.72;;;26.98;;
58208;SDS011;44006;52.028;4.696;2022-10-13T12:50:54;44.58;;;26.02;;
58208;SDS011;44006;52.028;4.696;2022-10-13T12:53:24;35.13;;;26.02;;
58208;SDS011;44006;52.028;4.696;2022-10-13T12:55:54;37.90;;;26.27;;
58208;SDS011;44006;52.028;4.696;2022-10-13T12:58:34;37.20;;;25.80;;
58208;SDS011;44006;52.028;4.696;2022-10-13T13:03:28;36.90;;;22.42;;
58208;SDS011;44006;52.028;4.696;2022-10-13T13:06:18;34.90;;;21.05;;
58208;SDS011;44006;52.028;4.696;2022-10-13T13:08:44;31.98;;;21.50;;
58208;SDS011;44006;52.028;4.696;2022-10-13T13:11:19;28.80;;;19.52;;
58208;SDS011;44006;52.028;4.696;2022-10-13T13:13:45;32.08;;;20.90;;
58208;SDS011;44006;52.028;4.696;2022-10-13T13:16:18;27.40;;;20.83;;
58208;SDS011;44006;52.028;4.696;2022-10-13T13:18:43;33.22;;;21.48;;
58208;SDS011;44006;52.028;4.696;2022-10-13T13:21:13;30.00;;;19.83;;
58208;SDS011;44006;52.028;4.696;2022-10-13T13:23:38;27.23;;;20.08;;
58208;SDS011;44006;52.028;4.696;2022-10-13T13:26:14;28.08;;;19.58;;
58208;SDS011;44006;52.028;4.696;2022-10-13T13:28:41;32.40;;;19.30;;
58208;SDS011;44006;52.028;4.696;2022-10-13T13:31:09;30.23;;;21.17;;
58208;SDS011;44006;52.028;4.696;2022-10-13T13:33:34;34.47;;;22.33;;
58208;SDS011;44006;52.028;4.696;2022-10-13T13:36:00;32.30;;;20.55;;
58208;SDS011;44006;52.028;4.696;2022-10-13T13:38:25;32.75;;;21.48;;
58208;SDS011;44006;52.028;4.696;2022-10-13T13:40:50;30.17;;;20.85;;
58208;SDS011;44006;52.028;4.696;2022-10-13T13:43:15;36.67;;;20.45;;
58208;SDS011;44006;52.028;4.696;2022-10-13T13:45:41;38.17;;;22.15;;
58208;SDS011;44006;52.028;4.696;2022-10-13T13:48:06;34.40;;;22.38;;
58208;SDS011;44006;52.028;4.696;2022-10-13T13:50:33;35.13;;;22.73;;
58208;SDS011;44006;52.028;4.696;2022-10-13T13:52:58;34.90;;;19.35;;
58208;SDS011;44006;52.028;4.696;2022-10-13T13:55:24;29.65;;;20.20;;
58208;SDS011;44006;52.028;4.696;2022-10-13T13:57:50;30.90;;;21.20;;
58208;SDS011;44006;52.028;4.696;2022-10-13T14:00:15;33.35;;;22.13;;
58208;SDS011;44006;52.028;4.696;2022-10-13T14:02:41;36.13;;;23.42;;
58208;SDS011;44006;52.028;4.696;2022-10-13T14:05:07;30.83;;;18.75;;
58208;SDS011;44006;52.028;4.696;2022-10-13T14:07:35;30.60;;;21.05;;
58208;SDS011;44006;52.028;4.696;2022-10-13T14:10:00;34.80;;;23.35;;
58208;SDS011;44006;52.028;4.696;2022-10-13T14:12:28;34.75;;;21.27;;
58208;SDS011;44006;52.028;4.696;2022-10-13T14:14:53;32.97;;;21.73;;
58208;SDS011;44006;52.028;4.696;2022-10-13T14:17:18;30.42;;;21.50;;
58208;SDS011;44006;52.028;4.696;2022-10-13T14:19:43;30.87;;;22.03;;
58208;SDS011;44006;52.028;4.696;2022-10-13T14:22:09;33.67;;;21.42;;
58208;SDS011;44006;52.028;4.696;2022-10-13T14:24:34;30.23;;;20.10;;
58208;SDS011;44006;52.028;4.696;2022-10-13T14:26:59;25.75;;;19.45;;
58208;SDS011;44006;52.028;4.696;2022-10-13T14:29:24;31.20;;;19.60;;
58208;SDS011;44006;52.028;4.696;2022-10-13T14:31:51;19.33;;;12.57;;
58208;SDS011;44006;52.028;4.696;2022-10-13T14:34:16;13.90;;;10.90;;
58208;SDS011;44006;52.028;4.696;2022-10-13T14:36:41;11.35;;;8.68;;
58208;SDS011;44006;52.028;4.696;2022-10-13T14:39:07;9.52;;;6.57;;
58208;SDS011;44006;52.028;4.696;2022-10-13T14:41:32;10.00;;;6.60;;
58208;SDS011;44006;52.028;4.696;2022-10-13T14:43:57;8.75;;;5.38;;
58208;SDS011;44006;52.028;4.696;2022-10-13T14:46:23;6.78;;;5.35;;
58208;SDS011;44006;52.028;4.696;2022-10-13T14:48:48;6.60;;;5.10;;
58208;SDS011;44006;52.028;4.696;2022-10-13T14:51:14;4.95;;;4.10;;
58208;SDS011;44006;52.028;4.696;2022-10-13T14:53:40;5.47;;;4.18;;
58208;SDS011;44006;52.028;4.696;2022-10-13T14:56:38;6.80;;;5.40;;
58208;SDS011;44006;52.028;4.696;2022-10-13T14:58:58;8.32;;;5.43;;
58208;SDS011;44006;52.028;4.696;2022-10-13T15:01:23;7.45;;;5.38;;
58208;SDS011;44006;52.028;4.696;2022-10-13T15:03:49;6.63;;;5.43;;
58208;SDS011;44006;52.028;4.696;2022-10-13T15:06:15;6.93;;;5.82;;
58208;SDS011;44006;52.028;4.696;2022-10-13T15:08:41;9.15;;;7.95;;
58208;SDS011;44006;52.028;4.696;2022-10-13T15:11:07;10.68;;;7.60;;
58208;SDS011;44006;52.028;4.696;2022-10-13T15:13:32;8.57;;;7.13;;
58208;SDS011;44006;52.028;4.696;2022-10-13T15:15:57;8.73;;;7.07;;
58208;SDS011;44006;52.028;4.696;2022-10-13T15:18:25;8.50;;;6.32;;
58208;SDS011;44006;52.028;4.696;2022-10-13T15:20:52;7.70;;;6.47;;
58208;SDS011;44006;52.028;4.696;2022-10-13T15:23:17;10.10;;;6.90;;
58208;SDS011;44006;52.028;4.696;2022-10-13T15:25:52;9.20;;;6.63;;
58208;SDS011;44006;52.028;4.696;2022-10-13T15:28:20;7.40;;;5.90;;
58208;SDS011;44006;52.028;4.696;2022-10-13T15:30:45;6.45;;;5.13;;
58208;SDS011;44006;52.028;4.696;2022-10-13T15:33:10;7.28;;;5.30;;
58208;SDS011;44006;52.028;4.696;2022-10-13T15:35:36;5.97;;;4.97;;
58208;SDS011;44006;52.028;4.696;2022-10-13T15:38:01;7.05;;;4.93;;
58208;SDS011;44006;52.028;4.696;2022-10-13T15:40:27;6.50;;;4.85;;
58208;SDS011;44006;52.028;4.696;2022-10-13T15:42:52;5.70;;;4.57;;
58208;SDS011;44006;52.028;4.696;2022-10-13T15:45:18;9.40;;;6.40;;
58208;SDS011;44006;52.028;4.696;2022-10-13T15:47:43;7.53;;;5.45;;
58208;SDS011;44006;52.028;4.696;2022-10-13T15:50:08;7.10;;;5.00;;
58208;SDS011;44006;52.028;4.696;2022-10-13T15:52:37;6.93;;;4.88;;
58208;SDS011;44006;52.028;4.696;2022-10-13T15:55:03;7.28;;;5.63;;
58208;SDS011;44006;52.028;4.696;2022-10-13T15:57:29;8.23;;;6.00;;
58208;SDS011;44006;52.028;4.696;2022-10-13T15:59:54;10.43;;;7.90;;
58208;SDS011;44006;52.028;4.696;2022-10-13T16:02:20;10.98;;;8.30;;
58208;SDS011;44006;52.028;4.696;2022-10-13T16:04:47;10.30;;;8.90;;